Time;durP1;ratioP1;P1;durP2;ratioP2;P2;SDS_P1;SDS_P2;PMS_P1;PMS_P2;Temp;Humidity;BMP_temperature;BMP_pressure;BME280_temperature;BME280_humidity;BME280_pressure;Samples;Min_cycle;Max_cycle;Signal;HPM_P1;HPM_P2
2022/01/04 00:00:17;;;;;;;0.95;0.45;;;8.10;99.90;;;;;;7236574;32;20170;-81
2022/01/04 00:04:18;;;;;;;1.92;1.00;;;8.00;99.90;;;;;;7234994;32;20153;-81
2022/01/04 00:08:20;;;;;;;1.17;0.50;;;8.00;99.90;;;;;;7237087;32;20800;-81
2022/01/04 00:16:43;;;;;;;3.22;0.68;;;8.00;99.90;;;;;;7256910;32;20234;-81
2022/01/04 00:20:46;;;;;;;2.20;0.98;;;7.80;99.90;;;;;;7242201;32;20211;-81
2022/01/04 00:24:48;;;;;;;2.22;0.88;;;7.90;99.90;;;;;;7249554;32;20109;-81
2022/01/04 00:28:50;;;;;;;1.33;0.70;;;7.90;99.90;;;;;;7231858;32;20124;-81
2022/01/04 00:32:52;;;;;;;2.67;1.10;;;8.00;99.90;;;;;;7238418;32;20273;-81
2022/01/04 00:36:53;;;;;;;2.95;1.20;;;7.90;99.90;;;;;;7245361;32;20147;-81
2022/01/04 00:40:55;;;;;;;3.58;1.42;;;7.90;99.90;;;;;;7243883;32;20196;-81
2022/01/04 00:44:57;;;;;;;3.55;1.20;;;7.90;99.90;;;;;;7244049;32;20164;-81
2022/01/04 00:49:11;;;;;;;4.15;1.65;;;7.90;99.90;;;;;;7234200;32;20146;-81
2022/01/04 00:53:13;;;;;;;3.37;1.52;;;7.90;99.90;;;;;;7239396;32;20692;-81
2022/01/04 00:57:15;;;;;;;2.75;1.52;;;7.80;99.90;;;;;;7256210;32;20274;-81
2022/01/04 01:01:16;;;;;;;3.72;1.58;;;7.80;99.90;;;;;;7249606;32;20097;-81
2022/01/04 01:05:24;;;;;;;4.78;1.50;;;7.70;99.90;;;;;;7236191;32;20132;-82
2022/01/04 01:09:30;;;;;;;;;;;7.70;99.90;;;;;;7253951;32;20120;-80
2022/01/04 01:13:32;;;;;;;3.08;1.50;;;7.70;99.90;;;;;;7241899;32;20016;-81
2022/01/04 01:17:34;;;;;;;1.83;1.15;;;7.70;99.90;;;;;;7233550;32;20127;-81
2022/01/04 01:21:36;;;;;;;3.80;1.17;;;7.70;99.90;;;;;;7249270;32;20220;-81
2022/01/04 01:25:38;;;;;;;2.58;1.00;;;7.70;99.90;;;;;;7250102;32;20104;-81
2022/01/04 01:29:40;;;;;;;3.55;1.30;;;7.70;99.90;;;;;;7250107;32;20180;-81
2022/01/04 01:33:41;;;;;;;1.60;1.00;;;7.70;99.90;;;;;;7248137;32;20104;-81
2022/01/04 01:37:43;;;;;;;1.98;0.90;;;7.60;99.90;;;;;;7239491;32;20178;-81
2022/01/04 01:41:45;;;;;;;1.35;1.00;;;7.60;99.90;;;;;;7252252;32;20222;-81
2022/01/04 01:45:47;;;;;;;2.30;0.90;;;7.50;99.90;;;;;;7244929;32;20868;-81
2022/01/04 01:49:49;;;;;;;1.75;0.93;;;7.50;99.90;;;;;;7248733;32;20164;-81
2022/01/04 01:53:51;;;;;;;3.05;1.08;;;7.60;99.90;;;;;;7262997;32;20146;-81
2022/01/04 01:57:54;;;;;;;1.95;1.12;;;7.50;99.90;;;;;;7261241;32;20112;-82
2022/01/04 02:01:56;;;;;;;3.03;0.90;;;7.50;99.90;;;;;;7261731;32;20207;-81
2022/01/04 02:05:58;;;;;;;4.95;1.08;;;7.50;99.90;;;;;;7259131;32;20239;-81
2022/01/04 02:10:04;;;;;;;1.83;1.08;;;7.50;99.90;;;;;;7259877;32;20101;-81
2022/01/04 02:14:05;;;;;;;2.87;1.30;;;7.50;99.90;;;;;;7250001;32;20181;-81
2022/01/04 02:18:08;;;;;;;2.50;1.33;;;7.40;99.90;;;;;;7236471;32;20736;-81
2022/01/04 02:22:10;;;;;;;6.70;1.90;;;7.40;99.90;;;;;;7248809;32;20123;-81
2022/01/04 02:26:12;;;;;;;2.70;1.48;;;7.40;99.90;;;;;;7254020;32;20633;-81
2022/01/04 02:30:17;;;;;;;4.03;1.75;;;7.40;99.90;;;;;;7259194;32;20246;-81
2022/01/04 02:34:19;;;;;;;5.47;1.90;;;7.40;99.90;;;;;;7257651;32;20122;-81
2022/01/04 02:38:21;;;;;;;3.87;2.00;;;7.40;99.90;;;;;;7239249;32;20108;-80
2022/01/04 02:42:23;;;;;;;5.05;2.22;;;7.40;99.90;;;;;;7246284;32;20180;-81
2022/01/04 02:46:25;;;;;;;7.37;2.53;;;7.40;99.90;;;;;;7253820;32;20159;-81
2022/01/04 02:55:43;;;;;;;5.57;2.33;;;7.40;99.90;;;;;;7249643;32;20112;-80
2022/01/04 02:59:45;;;;;;;5.12;2.60;;;7.40;99.90;;;;;;7244905;32;21251;-80
2022/01/04 03:03:46;;;;;;;5.15;2.55;;;7.40;99.90;;;;;;7243600;32;20112;-81
2022/01/04 03:07:48;;;;;;;4.68;2.78;;;7.40;99.90;;;;;;7241174;32;20121;-81
2022/01/04 03:11:50;;;;;;;6.00;3.08;;;7.40;99.90;;;;;;7247774;32;20701;-81
2022/01/04 03:15:52;;;;;;;4.60;2.87;;;7.40;99.90;;;;;;7259729;32;20135;-80
2022/01/04 03:19:53;;;;;;;5.20;2.87;;;7.40;99.90;;;;;;7245976;32;20108;-81
2022/01/04 03:23:55;;;;;;;4.80;2.80;;;7.30;99.90;;;;;;7236656;32;20270;-81
2022/01/04 03:27:57;;;;;;;5.15;3.05;;;7.30;99.90;;;;;;7248223;32;20137;-82
2022/01/04 03:31:59;;;;;;;10.02;2.87;;;7.40;99.90;;;;;;7247892;32;20191;-82
2022/01/04 03:36:02;;;;;;;4.25;2.65;;;7.40;99.90;;;;;;7254116;32;20134;-81
2022/01/04 03:40:06;;;;;;;7.85;3.30;;;7.40;99.90;;;;;;7240220;32;20190;-82
2022/01/04 03:44:10;;;;;;;4.32;2.72;;;7.30;99.90;;;;;;7252872;32;20144;-81
2022/01/04 03:48:12;;;;;;;5.62;2.70;;;7.30;99.90;;;;;;7254113;32;20894;-82
2022/01/04 03:52:14;;;;;;;5.05;3.15;;;7.30;99.90;;;;;;7244096;32;20168;-82
2022/01/04 03:56:16;;;;;;;5.35;2.50;;;7.30;99.90;;;;;;7249152;32;20217;-82
2022/01/04 04:00:17;;;;;;;4.40;2.28;;;7.30;99.90;;;;;;7251071;32;20113;-82
2022/01/04 04:04:19;;;;;;;4.85;2.53;;;7.30;99.90;;;;;;7235716;32;20196;-82
2022/01/04 04:08:21;;;;;;;4.55;2.60;;;7.40;99.90;;;;;;7255544;32;20777;-82
2022/01/04 04:12:23;;;;;;;4.57;2.50;;;7.40;99.90;;;;;;7237168;32;20147;-82
2022/01/04 04:16:25;;;;;;;3.62;2.35;;;7.40;99.90;;;;;;7248013;32;20640;-82
2022/01/04 04:20:27;;;;;;;3.80;2.55;;;7.40;99.90;;;;;;7253292;32;20177;-81
2022/01/04 04:24:29;;;;;;;4.05;2.40;;;7.30;99.90;;;;;;7253081;32;20112;-82
2022/01/04 04:28:31;;;;;;;6.45;2.55;;;7.30;99.90;;;;;;7237047;32;20497;-81
2022/01/04 04:32:32;;;;;;;4.28;2.85;;;7.30;99.90;;;;;;7243161;32;20185;-82
2022/01/04 04:36:34;;;;;;;4.15;3.25;;;7.30;99.90;;;;;;7240428;32;20121;-81
2022/01/04 04:40:36;;;;;;;4.85;3.20;;;7.30;99.90;;;;;;7241557;32;20633;-81
2022/01/04 04:44:38;;;;;;;5.90;3.50;;;7.30;99.90;;;;;;7229963;32;20116;-81
2022/01/04 04:48:40;;;;;;;5.93;3.97;;;7.30;99.90;;;;;;7232640;32;20133;-81
2022/01/04 04:52:41;;;;;;;6.40;3.83;;;7.30;99.90;;;;;;7250598;32;20128;-81
2022/01/04 04:56:43;;;;;;;5.62;3.92;;;7.20;99.90;;;;;;7237541;32;20135;-81
2022/01/04 05:00:45;;;;;;;6.95;4.32;;;7.20;99.90;;;;;;7246189;32;20195;-82
2022/01/04 05:04:47;;;;;;;10.27;4.97;;;7.30;99.90;;;;;;7233047;32;20559;-81
2022/01/04 05:08:49;;;;;;;8.23;5.05;;;7.20;99.90;;;;;;7251862;32;20180;-82
2022/01/04 05:12:50;;;;;;;7.82;4.95;;;7.30;99.90;;;;;;7258499;32;20203;-82
2022/01/04 05:16:52;;;;;;;7.60;5.40;;;7.30;99.90;;;;;;7240915;32;20142;-81
2022/01/04 05:20:54;;;;;;;7.35;5.28;;;7.30;99.90;;;;;;7238580;32;20147;-81
2022/01/04 05:24:55;;;;;;;9.10;5.62;;;7.30;99.90;;;;;;7248808;32;20211;-81
2022/01/04 05:28:57;;;;;;;7.72;5.40;;;7.30;99.90;;;;;;7250692;32;20109;-81
2022/01/04 05:33:03;;;;;;;9.18;5.47;;;7.30;99.90;;;;;;7248947;32;20112;-81
2022/01/04 05:37:05;;;;;;;8.25;5.43;;;7.30;99.90;;;;;;7237789;32;20117;-81
2022/01/04 05:41:07;;;;;;;7.40;5.37;;;7.30;99.90;;;;;;7249531;32;20120;-77
2022/01/04 05:45:09;;;;;;;7.80;4.97;;;7.40;99.90;;;;;;7232060;32;20560;-79
2022/01/04 05:49:11;;;;;;;7.85;5.47;;;7.30;99.90;;;;;;7242685;32;20130;-76
2022/01/04 05:53:12;;;;;;;7.18;4.97;;;7.30;99.90;;;;;;7242058;32;20219;-76
2022/01/04 05:57:15;;;;;;;9.05;5.07;;;7.30;99.90;;;;;;7230262;32;20180;-78
2022/01/04 06:01:17;;;;;;;12.27;5.53;;;7.20;99.90;;;;;;7253787;32;20123;-83
2022/01/04 06:05:19;;;;;;;11.70;6.50;;;7.30;99.90;;;;;;7288156;32;20196;-80
2022/01/04 06:09:28;;;;;;;12.05;7.20;;;7.20;99.90;;;;;;7279307;32;20081;-81
2022/01/04 06:17:51;;;;;;;12.20;7.72;;;7.30;99.90;;;;;;7290003;32;20072;-81
2022/01/04 06:21:53;;;;;;;13.40;8.05;;;7.20;99.90;;;;;;7278701;32;20085;-81
2022/01/04 06:25:55;;;;;;;13.13;8.65;;;7.20;99.90;;;;;;7282654;32;20164;-81
2022/01/04 06:29:57;;;;;;;12.93;7.78;;;7.30;99.90;;;;;;7276721;32;20208;-81
2022/01/04 06:33:59;;;;;;;13.27;8.07;;;7.30;99.90;;;;;;7256494;32;20156;-81
2022/01/04 06:38:01;;;;;;;11.57;7.18;;;7.40;99.90;;;;;;7243855;32;20241;-81
2022/01/04 06:42:03;;;;;;;12.10;7.55;;;7.30;99.90;;;;;;7239978;32;20196;-81
2022/01/04 06:46:05;;;;;;;12.88;7.85;;;7.30;99.90;;;;;;7260953;32;20290;-80
2022/01/04 06:50:07;;;;;;;11.68;7.80;;;7.30;99.90;;;;;;7251609;32;20214;-80
2022/01/04 06:54:10;;;;;;;11.45;7.07;;;7.30;99.90;;;;;;7241174;32;20116;-80
2022/01/04 06:58:12;;;;;;;13.02;8.40;;;7.20;99.90;;;;;;7257201;32;20200;-80
2022/01/04 07:02:14;;;;;;;12.57;8.48;;;7.20;99.90;;;;;;7253394;32;20154;-80
2022/01/04 07:06:16;;;;;;;14.32;8.55;;;7.20;99.90;;;;;;7258469;32;20125;-79
2022/01/04 07:10:17;;;;;;;13.13;8.40;;;7.20;99.90;;;;;;7249959;32;20533;-81
2022/01/04 07:14:19;;;;;;;15.02;8.45;;;7.20;99.90;;;;;;7240694;32;20125;-80
2022/01/04 07:18:21;;;;;;;13.88;7.97;;;7.30;99.90;;;;;;7242299;32;20576;-79
2022/01/04 07:22:23;;;;;;;14.98;9.38;;;7.20;99.90;;;;;;7238910;32;20440;-79
2022/01/04 07:26:25;;;;;;;13.05;8.05;;;7.20;99.90;;;;;;7248382;32;20117;-79
2022/01/04 07:30:26;;;;;;;12.40;8.18;;;7.20;99.90;;;;;;7245115;32;20245;-80
2022/01/04 07:34:28;;;;;;;16.20;8.93;;;7.20;99.90;;;;;;7247222;32;20467;-79
2022/01/04 07:38:30;;;;;;;13.43;9.38;;;7.20;99.90;;;;;;7245478;32;20129;-80
2022/01/04 07:42:31;;;;;;;17.23;10.07;;;7.20;99.90;;;;;;7233681;32;20195;-79
2022/01/04 07:46:33;;;;;;;17.37;9.88;;;7.20;99.90;;;;;;7253769;32;20140;-77
2022/01/04 07:50:35;;;;;;;16.80;10.50;;;7.20;99.90;;;;;;7228045;32;20100;-79
2022/01/04 07:54:37;;;;;;;18.65;11.15;;;7.20;99.90;;;;;;7242694;32;20211;-79
2022/01/04 07:58:39;;;;;;;17.45;11.43;;;7.20;99.90;;;;;;7253543;32;20216;-79
2022/01/04 08:02:44;;;;;;;20.30;11.02;;;7.20;99.90;;;;;;7248583;32;20100;-79
2022/01/04 08:06:46;;;;;;;16.55;10.60;;;7.10;99.90;;;;;;7233620;32;20249;-80
2022/01/04 08:10:50;;;;;;;15.93;10.38;;;7.20;99.90;;;;;;7255277;32;20260;-79
2022/01/04 08:14:52;;;;;;;16.25;11.02;;;7.20;99.90;;;;;;7238167;32;20813;-79
2022/01/04 08:18:53;;;;;;;17.12;10.88;;;7.20;99.90;;;;;;7238709;32;20546;-78
2022/01/04 08:23:10;;;;;;;16.03;10.83;;;7.20;99.90;;;;;;7253818;32;20162;-78
2022/01/04 08:27:12;;;;;;;21.40;12.00;;;7.20;99.90;;;;;;7252433;32;20108;-79
2022/01/04 08:31:14;;;;;;;19.77;10.95;;;7.30;99.90;;;;;;7245773;32;20788;-79
2022/01/04 08:35:25;;;;;;;17.23;10.93;;;7.20;99.90;;;;;;7244664;32;20108;-79
2022/01/04 08:39:27;;;;;;;18.02;11.18;;;7.20;99.90;;;;;;7221815;32;20230;-78
2022/01/04 08:43:29;;;;;;;17.55;10.93;;;7.20;99.90;;;;;;7233575;32;20136;-78
2022/01/04 08:47:31;;;;;;;16.58;10.30;;;7.30;99.90;;;;;;7245454;32;20139;-78
2022/01/04 08:51:34;;;;;;;15.75;10.52;;;7.30;99.90;;;;;;7237963;32;20129;-78
2022/01/04 08:55:47;;;;;;;15.48;9.38;;;7.20;99.90;;;;;;7239523;32;20167;-84
2022/01/04 08:59:49;;;;;;;15.27;9.63;;;7.30;99.90;;;;;;7228059;32;20541;-79
2022/01/04 09:03:51;;;;;;;15.10;9.38;;;7.20;99.90;;;;;;7244832;32;20143;-79
2022/01/04 09:07:57;;;;;;;15.70;9.00;;;7.20;99.90;;;;;;7228152;32;20131;-82
2022/01/04 09:11:59;;;;;;;14.35;8.68;;;7.30;99.90;;;;;;7246997;32;20180;-79
2022/01/04 09:20:11;;;;;;;13.60;8.20;;;7.30;99.90;;;;;;7240932;32;20199;-78
2022/01/04 09:24:13;;;;;;;11.40;7.72;;;7.30;99.90;;;;;;7240581;32;20128;-78
2022/01/04 09:28:15;;;;;;;13.10;7.40;;;7.30;99.90;;;;;;7249343;32;20125;-87
2022/01/04 09:32:17;;;;;;;14.68;7.72;;;7.30;99.90;;;;;;7240575;32;20275;-77
2022/01/04 09:36:22;;;;;;;10.32;6.60;;;7.30;99.90;;;;;;7248186;32;20181;-88
2022/01/04 09:40:24;;;;;;;8.65;5.93;;;7.40;99.90;;;;;;7238188;32;20151;-80
2022/01/04 09:44:27;;;;;;;7.95;5.90;;;7.40;99.90;;;;;;7241744;32;20140;-81
2022/01/04 09:48:45;;;;;;;8.63;6.35;;;7.40;99.90;;;;;;7248749;32;20342;-88
2022/01/04 09:52:49;;;;;;;9.57;5.80;;;7.40;99.90;;;;;;7246970;32;20245;-80
2022/01/04 09:56:52;;;;;;;11.07;5.80;;;7.40;99.90;;;;;;7254796;32;20518;-80
2022/01/04 10:00:54;;;;;;;9.02;7.03;;;7.40;99.90;;;;;;7253282;32;20121;-86
2022/01/04 10:05:27;;;;;;;9.85;6.30;;;7.40;99.90;;;;;;7246646;32;20223;-80
2022/01/04 10:10:08;;;;;;;10.52;6.28;;;7.50;99.90;;;;;;7232982;32;20134;-80
2022/01/04 10:14:43;;;;;;;8.80;6.55;;;7.40;99.90;;;;;;7237129;32;20234;-80
2022/01/04 10:18:48;;;;;;;8.45;6.22;;;7.30;99.90;;;;;;7253797;32;20117;-79
2022/01/04 10:23:10;;;;;;;7.95;5.40;;;7.40;99.90;;;;;;7265370;32;20085;-80
2022/01/04 10:32:11;;;;;;;7.78;5.18;;;7.40;99.90;;;;;;7256902;32;20528;-80
2022/01/04 10:36:13;;;;;;;8.23;4.43;;;7.50;99.90;;;;;;7265756;32;20132;-80
2022/01/04 10:40:21;;;;;;;9.00;4.95;;;7.50;99.90;;;;;;7264641;32;20146;-84
2022/01/04 10:44:32;;;;;;;7.78;4.95;;;7.50;99.90;;;;;;7253290;32;20605;-80
2022/01/04 10:48:41;;;;;;;7.68;4.55;;;7.50;99.90;;;;;;7250274;32;20121;-80
2022/01/04 10:52:43;;;;;;;8.40;4.32;;;7.50;99.90;;;;;;7259580;32;20158;-87
2022/01/04 10:56:45;;;;;;;6.18;4.43;;;7.50;99.90;;;;;;7259548;32;20198;-80
2022/01/04 11:01:00;;;;;;;9.93;4.72;;;7.50;99.90;;;;;;7237686;32;20738;-87
2022/01/04 11:05:21;;;;;;;8.90;4.62;;;7.50;99.90;;;;;;7250551;32;20127;-87
2022/01/04 11:09:23;;;;;;;6.68;4.40;;;7.50;99.90;;;;;;7265699;32;20191;-81
2022/01/04 11:13:25;;;;;;;6.47;4.12;;;7.60;99.90;;;;;;7264528;32;20124;-82
2022/01/04 11:17:49;;;;;;;7.60;5.07;;;7.60;99.90;;;;;;7261310;32;20133;-89
2022/01/04 11:21:52;;;;;;;7.40;4.80;;;7.60;99.90;;;;;;7257135;32;20136;-81
2022/01/04 11:25:55;;;;;;;9.73;5.40;;;7.60;99.90;;;;;;7248695;32;20112;-81
2022/01/04 11:30:32;;;;;;;9.18;5.30;;;7.60;99.90;;;;;;7249597;32;20116;-87
2022/01/04 11:34:54;;;;;;;;;;;7.70;99.90;;;;;;7261979;32;20162;-89
2022/01/04 11:38:55;;;;;;;10.00;5.50;;;7.70;99.90;;;;;;7264402;32;20375;-87
2022/01/04 11:42:58;;;;;;;8.95;5.90;;;7.70;99.90;;;;;;7257982;32;20226;-81
2022/01/04 11:47:02;;;;;;;8.93;6.45;;;7.70;99.90;;;;;;7249294;32;20203;-90
2022/01/04 11:51:34;;;;;;;11.73;6.70;;;7.70;99.90;;;;;;7250542;32;20147;-82
2022/01/04 11:55:37;;;;;;;11.23;6.12;;;7.80;99.90;;;;;;7261714;32;20143;-81
2022/01/04 11:59:46;;;;;;;13.90;8.43;;;7.80;99.90;;;;;;7242723;32;20197;-82
2022/01/04 12:03:55;;;;;;;12.55;7.20;;;7.80;99.90;;;;;;7232391;32;20714;-89
2022/01/04 12:08:13;;;;;;;13.10;7.57;;;7.80;99.90;;;;;;7262692;32;20163;-81
2022/01/04 12:13:00;;;;;;;12.07;7.07;;;7.80;99.90;;;;;;7266628;32;20238;-80
2022/01/04 12:17:07;;;;;;;13.10;7.03;;;7.80;99.90;;;;;;7237687;32;20166;-81
2022/01/04 12:21:13;;;;;;;10.95;7.03;;;7.80;99.90;;;;;;7255050;32;20112;-82
2022/01/04 12:25:17;;;;;;;16.87;7.28;;;7.80;99.90;;;;;;7242299;32;20176;-88
2022/01/04 12:29:21;;;;;;;14.38;7.75;;;7.80;99.90;;;;;;7263716;32;20792;-82
2022/01/04 12:33:36;;;;;;;14.18;7.97;;;7.80;99.90;;;;;;7267216;32;20206;-82
2022/01/04 12:37:41;;;;;;;10.45;7.47;;;7.80;99.90;;;;;;7268980;32;20183;-89
2022/01/04 12:41:46;;;;;;;13.68;7.70;;;7.80;99.90;;;;;;7253903;32;20155;-81
2022/01/04 12:45:58;;;;;;;12.85;7.75;;;7.70;99.90;;;;;;7251919;32;20084;-82
2022/01/04 12:50:07;;;;;;;12.63;7.53;;;7.70;99.90;;;;;;7269241;32;20088;-89
2022/01/04 12:54:34;;;;;;;15.68;7.43;;;7.70;99.90;;;;;;7260964;32;20172;-82
2022/01/04 12:58:37;;;;;;;15.30;8.18;;;7.80;99.90;;;;;;7252401;32;20220;-82
2022/01/04 13:02:39;;;;;;;13.30;7.62;;;7.80;99.90;;;;;;7273579;32;20221;-84
2022/01/04 13:06:59;;;;;;;14.30;7.82;;;7.80;99.90;;;;;;7258912;32;20153;-82
2022/01/04 13:11:08;;;;;;;12.30;8.05;;;7.80;99.90;;;;;;7269555;32;20113;-84
2022/01/04 13:15:13;;;;;;;15.00;7.55;;;7.90;99.90;;;;;;7287825;32;20115;-83
2022/01/04 13:19:24;;;;;;;17.15;8.00;;;7.90;99.90;;;;;;7274415;32;20110;-87
2022/01/04 13:23:26;;;;;;;10.60;7.22;;;7.90;99.90;;;;;;7270260;32;20143;-83
2022/01/04 13:27:39;;;;;;;14.95;8.63;;;7.90;99.90;;;;;;7261503;32;20077;-83
2022/01/04 13:31:46;;;;;;;16.45;8.50;;;7.90;99.90;;;;;;7285615;32;20108;-89
2022/01/04 13:35:48;;;;;;;13.27;8.23;;;7.90;99.90;;;;;;7247001;32;20572;-81
2022/01/04 13:39:50;;;;;;;15.68;8.25;;;7.90;99.90;;;;;;7259406;32;20129;-82
2022/01/04 13:44:04;;;;;;;18.30;10.00;;;7.90;99.90;;;;;;7253885;32;20135;-82
2022/01/04 13:48:06;;;;;;;16.85;8.95;;;7.90;99.90;;;;;;7246105;32;20120;-82
2022/01/04 13:52:17;;;;;;;24.37;8.65;;;7.90;99.90;;;;;;7265020;32;20870;-82
2022/01/04 13:56:21;;;;;;;16.23;9.20;;;7.90;99.90;;;;;;7254853;32;20247;-80
2022/01/04 14:00:29;;;;;;;18.25;9.45;;;8.20;99.90;;;;;;7253644;32;20279;-82
2022/01/04 14:04:33;;;;;;;21.00;10.18;;;8.20;99.90;;;;;;7248257;32;20132;-82
2022/01/04 14:08:48;;;;;;;16.65;9.57;;;8.10;99.90;;;;;;7269055;32;20134;-82
2022/01/04 14:12:50;;;;;;;19.55;9.65;;;8.10;99.90;;;;;;7274546;32;20195;-81
2022/01/04 14:17:00;;;;;;;16.98;9.20;;;8.10;99.90;;;;;;7268359;32;20593;-81
2022/01/04 14:21:03;;;;;;;19.17;9.88;;;8.10;99.90;;;;;;7266699;32;20140;-82
2022/01/04 14:25:19;;;;;;;19.58;11.02;;;8.00;99.90;;;;;;7259100;32;20124;-82
2022/01/04 14:29:28;;;;;;;17.87;10.32;;;8.00;99.90;;;;;;7257423;32;20166;-80
2022/01/04 14:33:29;;;;;;;25.80;11.35;;;8.00;99.90;;;;;;7256451;32;20138;-80
2022/01/04 14:37:33;;;;;;;18.08;11.20;;;7.90;99.90;;;;;;7258829;32;20105;-81
2022/01/04 14:41:35;;;;;;;21.85;11.23;;;7.90;99.90;;;;;;7245818;32;20182;-81
2022/01/04 14:45:37;;;;;;;19.33;11.02;;;7.80;99.90;;;;;;7256039;32;20065;-81
2022/01/04 14:49:39;;;;;;;19.67;11.05;;;7.80;99.90;;;;;;7260053;32;20340;-81
2022/01/04 14:53:41;;;;;;;19.27;11.75;;;7.80;99.90;;;;;;7248858;32;20189;-81
2022/01/04 14:57:43;;;;;;;18.42;11.82;;;7.80;99.90;;;;;;7246477;32;20163;-82
2022/01/04 15:01:46;;;;;;;20.70;12.40;;;7.80;99.90;;;;;;7269444;32;20154;-81
2022/01/04 15:05:47;;;;;;;20.33;12.43;;;7.80;99.90;;;;;;7255309;32;20152;-81
2022/01/04 15:09:50;;;;;;;17.45;12.15;;;7.80;99.90;;;;;;7248216;32;20509;-80
2022/01/04 15:13:51;;;;;;;22.75;12.65;;;7.80;99.90;;;;;;7247934;32;20113;-81
2022/01/04 15:18:02;;;;;;;22.42;12.98;;;7.70;99.90;;;;;;7256235;32;20120;-80
2022/01/04 15:22:05;;;;;;;19.05;13.00;;;7.70;99.90;;;;;;7251104;32;20255;-81
2022/01/04 15:26:06;;;;;;;20.95;13.38;;;7.60;99.90;;;;;;7238889;32;20176;-79
2022/01/04 15:30:09;;;;;;;19.87;11.48;;;7.60;99.90;;;;;;7247148;32;20117;-79
2022/01/04 15:34:11;;;;;;;12.13;7.37;;;7.70;99.90;;;;;;7257249;32;20152;-79
2022/01/04 15:38:13;;;;;;;10.43;5.18;;;7.40;99.90;;;;;;7241179;32;20176;-81
2022/01/04 15:42:15;;;;;;;10.48;4.82;;;7.30;99.90;;;;;;7251261;32;20192;-79
2022/01/04 15:46:17;;;;;;;8.38;4.55;;;7.20;99.90;;;;;;7251755;32;20180;-80
2022/01/04 15:50:33;;;;;;;8.75;4.30;;;7.20;99.90;;;;;;7249081;32;20179;-80
2022/01/04 15:54:35;;;;;;;7.07;3.62;;;7.10;99.90;;;;;;7243011;32;20112;-80
2022/01/04 15:58:36;;;;;;;4.18;3.15;;;7.10;99.90;;;;;;7247151;32;20132;-80
2022/01/04 16:02:38;;;;;;;5.87;2.85;;;7.10;99.90;;;;;;7249985;32;20792;-81
2022/01/04 16:06:40;;;;;;;5.00;3.15;;;7.00;99.90;;;;;;7250167;32;20124;-80
2022/01/04 16:10:44;;;;;;;7.28;3.22;;;7.00;99.90;;;;;;7252289;32;20263;-80
2022/01/04 16:14:45;;;;;;;5.40;2.53;;;7.00;99.90;;;;;;7241120;32;20101;-80
2022/01/04 16:23:08;;;;;;;3.92;2.70;;;7.00;99.90;;;;;;7247804;32;20263;-80
2022/01/04 16:27:10;;;;;;;5.90;3.20;;;6.90;99.90;;;;;;7249971;32;20105;-79
2022/01/04 16:31:11;;;;;;;5.20;2.80;;;6.90;99.90;;;;;;7242746;32;20124;-80
2022/01/04 16:35:15;;;;;;;3.97;2.00;;;6.80;99.90;;;;;;7241621;32;20194;-79
2022/01/04 16:39:21;;;;;;;4.55;2.40;;;6.90;99.90;;;;;;7240369;32;20131;-79
2022/01/04 16:43:23;;;;;;;4.35;2.47;;;6.90;99.90;;;;;;7236577;32;20113;-79
2022/01/04 16:47:24;;;;;;;4.80;2.33;;;6.80;99.90;;;;;;7243436;32;20134;-80
2022/01/04 16:51:26;;;;;;;6.30;3.03;;;6.70;99.90;;;;;;7249192;32;20216;-80
2022/01/04 16:55:28;;;;;;;7.60;3.78;;;6.60;99.90;;;;;;7247260;32;20148;-79
2022/01/04 16:59:50;;;;;;;6.18;3.90;;;6.70;99.90;;;;;;7236975;32;20200;-79
2022/01/04 17:03:52;;;;;;;5.25;3.50;;;6.70;99.90;;;;;;7247738;32;20105;-80
2022/01/04 17:07:54;;;;;;;5.55;4.22;;;6.60;99.90;;;;;;7230933;32;20130;-80
2022/01/04 17:16:00;;;;;;;8.82;5.12;;;6.60;99.90;;;;;;7253885;32;20176;-79
2022/01/04 17:20:08;;;;;;;9.82;4.25;;;6.70;99.90;;;;;;7245535;32;20234;-78
2022/01/04 17:24:11;;;;;;;7.12;4.60;;;6.60;99.90;;;;;;7236917;32;20613;-80
2022/01/04 17:28:15;;;;;;;9.90;5.53;;;6.60;99.90;;;;;;7237937;32;20140;-79
2022/01/04 17:32:17;;;;;;;8.85;5.50;;;6.60;99.90;;;;;;7259991;32;20200;-78
2022/01/04 17:36:19;;;;;;;8.82;5.20;;;6.60;99.90;;;;;;7247899;32;20124;-79
2022/01/04 17:40:20;;;;;;;7.97;5.55;;;6.50;99.90;;;;;;7244385;32;20258;-79
2022/01/04 17:44:22;;;;;;;9.25;5.22;;;6.50;99.90;;;;;;7244398;32;20179;-80
2022/01/04 17:48:26;;;;;;;10.43;5.62;;;6.40;99.90;;;;;;7259066;32;20182;-79
2022/01/04 17:52:29;;;;;;;9.63;5.53;;;6.30;99.90;;;;;;7239619;32;20227;-79
2022/01/04 17:56:31;;;;;;;10.98;6.43;;;6.30;99.90;;;;;;7248108;32;20251;-79
2022/01/04 18:00:35;;;;;;;15.70;6.72;;;6.30;99.90;;;;;;7248199;32;20225;-80
2022/01/04 18:04:37;;;;;;;10.32;5.70;;;6.20;99.90;;;;;;7248183;32;20112;-79
2022/01/04 18:08:39;;;;;;;10.93;6.93;;;6.20;99.90;;;;;;7242913;32;20199;-80
2022/01/04 18:12:41;;;;;;;10.82;7.50;;;6.20;99.90;;;;;;7252193;32;20164;-80
2022/01/04 18:16:43;;;;;;;14.20;8.30;;;6.30;99.90;;;;;;7245887;32;20207;-79
2022/01/04 18:20:48;;;;;;;10.55;7.07;;;6.30;99.90;;;;;;7250755;32;20127;-80
2022/01/04 18:24:49;;;;;;;14.02;8.07;;;6.20;99.90;;;;;;7238232;32;20237;-80
2022/01/04 18:28:52;;;;;;;14.02;8.68;;;6.20;99.90;;;;;;7251792;32;20663;-80
2022/01/04 18:32:54;;;;;;;12.05;7.85;;;6.20;99.90;;;;;;7245936;32;20554;-81
2022/01/04 18:36:56;;;;;;;13.93;9.38;;;6.20;99.90;;;;;;7249060;32;20158;-80
2022/01/04 18:41:00;;;;;;;15.05;9.70;;;6.20;99.90;;;;;;7245647;32;20108;-81
2022/01/04 18:45:06;;;;;;;14.52;8.60;;;6.20;99.90;;;;;;7247721;32;20105;-80
2022/01/04 18:49:08;;;;;;;13.40;8.48;;;6.20;99.90;;;;;;7263092;32;20184;-80
2022/01/04 18:53:10;;;;;;;15.00;10.13;;;6.30;99.90;;;;;;7253551;32;20207;-82
2022/01/04 18:57:12;;;;;;;17.65;9.35;;;6.30;99.90;;;;;;7243467;32;20165;-79
2022/01/04 19:01:14;;;;;;;17.27;9.68;;;6.30;99.90;;;;;;7258793;32;20596;-83
2022/01/04 19:05:17;;;;;;;19.23;10.85;;;6.20;99.90;;;;;;7245075;32;20174;-80
2022/01/04 19:09:24;;;;;;;11.73;7.70;;;6.10;99.90;;;;;;7255312;32;20236;-81
2022/01/04 19:13:26;;;;;;;12.27;7.12;;;6.00;99.90;;;;;;7250694;32;20131;-83
2022/01/04 19:17:28;;;;;;;10.18;7.03;;;5.90;99.90;;;;;;7252376;32;20188;-83
2022/01/04 19:21:31;;;;;;;9.02;5.18;;;5.90;99.90;;;;;;7265129;32;20213;-83
2022/01/04 19:25:34;;;;;;;6.37;3.22;;;5.90;99.90;;;;;;7250707;32;20699;-81
2022/01/04 19:29:36;;;;;;;7.97;3.70;;;5.80;99.90;;;;;;7245218;32;20171;-84
2022/01/04 19:37:49;;;;;;;6.65;3.00;;;5.50;99.90;;;;;;7264040;32;20293;-83
2022/01/04 19:41:51;;;;;;;4.80;2.65;;;5.50;99.90;;;;;;7262086;32;20288;-83
2022/01/04 19:45:53;;;;;;;6.25;2.67;;;5.50;99.90;;;;;;7254409;32;20554;-84
2022/01/04 19:49:55;;;;;;;7.53;2.10;;;5.50;99.90;;;;;;7257381;32;20151;-83
2022/01/04 19:53:58;;;;;;;4.40;2.03;;;5.40;99.90;;;;;;7261280;32;20276;-84
2022/01/04 19:58:00;;;;;;;3.37;1.70;;;5.40;99.90;;;;;;7275996;32;20797;-83
2022/01/04 20:02:02;;;;;;;6.43;2.55;;;5.30;99.90;;;;;;7275694;32;20154;-84
2022/01/04 20:06:04;;;;;;;4.25;2.10;;;5.30;99.90;;;;;;7269169;32;20121;-82
2022/01/04 20:10:10;;;;;;;7.35;2.20;;;5.30;99.90;;;;;;7247817;32;20108;-82
2022/01/04 20:14:13;;;;;;;7.97;2.60;;;5.30;99.90;;;;;;7257820;32;20308;-82
2022/01/04 20:18:15;;;;;;;6.75;1.80;;;5.30;99.90;;;;;;7243776;32;20116;-82
2022/01/04 20:22:19;;;;;;;4.12;1.90;;;5.30;99.90;;;;;;7253404;32;20191;-82
2022/01/04 20:26:22;;;;;;;5.35;2.33;;;5.20;99.90;;;;;;7253381;32;20712;-82
2022/01/04 20:30:24;;;;;;;4.53;1.45;;;5.10;99.90;;;;;;7246091;32;20112;-81
2022/01/04 20:34:25;;;;;;;7.75;1.23;;;5.10;99.90;;;;;;7259370;32;20164;-79
2022/01/04 20:38:27;;;;;;;5.43;0.62;;;4.80;99.90;;;;;;7237959;32;20444;-80
2022/01/04 20:42:29;;;;;;;7.07;1.00;;;4.50;99.90;;;;;;7256998;32;20522;-80
2022/01/04 20:46:31;;;;;;;7.10;0.47;;;4.20;99.90;;;;;;7257574;32;20836;-80
2022/01/04 20:50:33;;;;;;;6.68;0.77;;;4.10;99.90;;;;;;7251572;32;20191;-80
2022/01/04 20:54:35;;;;;;;6.85;0.93;;;4.00;99.90;;;;;;7254422;32;20178;-80
2022/01/04 20:58:38;;;;;;;8.00;1.20;;;3.80;99.90;;;;;;7247100;32;20594;-83
2022/01/04 21:02:41;;;;;;;3.80;0.82;;;3.70;99.90;;;;;;7246376;32;20180;-81
2022/01/04 21:06:43;;;;;;;6.65;1.20;;;3.70;99.90;;;;;;7240211;32;20130;-82
2022/01/04 21:10:45;;;;;;;6.70;1.08;;;3.80;99.90;;;;;;7234837;32;20201;-81
2022/01/04 21:14:47;;;;;;;3.33;0.77;;;3.80;99.90;;;;;;7272386;32;20114;-87
2022/01/04 21:18:50;;;;;;;4.20;1.15;;;3.80;99.90;;;;;;7264198;32;20053;-85
2022/01/04 21:22:52;;;;;;;6.00;1.00;;;3.80;99.90;;;;;;7285083;32;20123;-86
2022/01/04 21:26:53;;;;;;;5.20;0.98;;;3.80;99.90;;;;;;7281305;32;20121;-86
2022/01/04 21:30:57;;;;;;;5.43;1.27;;;3.80;99.90;;;;;;7272310;32;20062;-86
2022/01/04 21:34:59;;;;;;;4.60;1.30;;;3.80;99.90;;;;;;7278465;32;20065;-87
2022/01/04 21:39:01;;;;;;;6.20;1.20;;;3.90;99.90;;;;;;7269337;32;20062;-85
2022/01/04 21:43:03;;;;;;;4.25;1.05;;;3.80;99.90;;;;;;7277851;32;20104;-85
2022/01/04 21:47:05;;;;;;;4.78;0.77;;;3.80;99.90;;;;;;7267755;32;20133;-87
2022/01/04 21:51:07;;;;;;;4.30;1.02;;;3.90;99.90;;;;;;7264364;32;20072;-79
2022/01/04 21:55:12;;;;;;;7.03;0.93;;;3.90;99.90;;;;;;7274622;32;20146;-79